Time;durP1;ratioP1;P1;durP2;ratioP2;P2;SDS_P1;SDS_P2;PMS_P1;PMS_P2;Temp;Humidity;BMP_temperature;BMP_pressure;BME280_temperature;BME280_humidity;BME280_pressure;Samples;Min_cycle;Max_cycle;Signal;HPM_P1;HPM_P2
2021/12/25 00:02:54;;;;;;;1.13;0.60;;;;;;;14.11;48.65;100469.25;19668210;30;20078;-70
2021/12/25 00:12:59;;;;;;;1.60;0.60;;;;;;;14.44;48.04;100523.78;19679620;30;20092;-70
2021/12/25 00:23:04;;;;;;;1.35;0.80;;;;;;;14.49;48.26;100535.84;19692673;30;20056;-70
2021/12/25 00:34:13;;;;;;;1.47;0.80;;;;;;;14.39;48.21;100534.88;19675489;30;20135;-70
2021/12/25 00:43:49;;;;;;;0.93;0.50;;;;;;;14.27;48.10;100534.03;19673101;30;20515;-71
2021/12/25 00:53:58;;;;;;;2.47;0.70;;;;;;;13.78;47.84;100459.31;19650180;30;20420;-71
2021/12/25 01:04:04;;;;;;;1.55;0.65;;;;;;;12.97;47.77;100322.03;19660123;30;20052;-70
2021/12/25 01:14:24;;;;;;;1.15;0.80;;;;;;;14.13;47.19;100520.84;19674987;30;20052;-69
2021/12/25 01:24:59;;;;;;;;;;;;;;;14.47;47.43;100587.81;19660262;30;20064;-70
2021/12/25 01:56:29;;;;;;;1.25;0.60;;;;;;;12.89;46.89;100334.19;19684155;30;20115;-74
2021/12/25 02:06:31;;;;;;;1.27;0.60;;;;;;;13.45;46.27;100439.53;20108209;24;20065;-71
2021/12/25 02:16:50;;;;;;;0.88;0.65;;;;;;;13.90;46.30;100513.66;19736625;30;20095;-71
2021/12/25 02:26:56;;;;;;;1.52;0.60;;;;;;;14.18;46.06;100575.75;19721753;30;20519;-70
2021/12/25 02:37:00;;;;;;;0.75;0.52;;;;;;;14.41;45.90;100615.09;19721280;30;20075;-71
2021/12/25 02:47:09;;;;;;;1.67;0.70;;;;;;;13.77;45.94;100518.25;19734940;30;20059;-71
2021/12/25 02:57:12;;;;;;;1.67;0.77;;;;;;;14.11;45.74;100577.22;19720725;30;20082;-71
2021/12/25 03:07:14;;;;;;;1.42;0.63;;;;;;;13.73;45.47;100531.03;19721157;29;20143;-71
2021/12/25 03:17:16;;;;;;;2.38;0.63;;;;;;;14.04;45.12;100576.81;19733791;30;20051;-71
2021/12/25 03:27:18;;;;;;;0.55;0.50;;;;;;;14.32;44.90;100655.00;19734922;30;20091;-71
2021/12/25 03:37:21;;;;;;;0.85;0.50;;;;;;;14.20;45.33;100629.19;19745922;30;20067;-71
2021/12/25 03:47:28;;;;;;;1.05;0.55;;;;;;;14.28;44.73;100637.50;19730922;30;20055;-70
2021/12/25 03:57:49;;;;;;;0.77;0.40;;;;;;;14.03;44.75;100622.47;19731370;30;20143;-70
2021/12/25 04:18:06;;;;;;;1.75;0.40;;;;;;;13.61;44.41;100562.25;19746032;30;20068;-71
2021/12/25 05:09:28;;;;;;;0.47;0.40;;;;;;;13.49;43.36;100529.25;19742046;29;20063;-71
2021/12/25 05:19:30;;;;;;;0.65;0.40;;;;;;;14.59;43.42;100710.09;19739785;30;20055;-70
2021/12/25 05:29:34;;;;;;;0.52;0.38;;;;;;;14.62;43.72;100722.41;19738682;30;20063;-70
2021/12/25 05:39:39;;;;;;;1.65;0.60;;;;;;;14.02;42.94;100626.13;19737683;30;20143;-71
2021/12/25 05:49:41;;;;;;;1.10;0.50;;;;;;;14.67;42.99;100719.38;19737600;30;20056;-72
2021/12/25 06:00:16;;;;;;;0.43;0.32;;;;;;;14.79;43.18;100726.47;19727080;30;20498;-71
2021/12/25 06:10:18;;;;;;;0.63;0.40;;;;;;;14.32;42.85;100646.13;19734091;30;20051;-71
2021/12/25 06:20:21;;;;;;;0.77;0.40;;;;;;;14.86;43.02;100749.13;19735161;30;20066;-70
2021/12/25 06:30:44;;;;;;;1.08;0.60;;;;;;;14.89;42.92;100770.34;19722899;30;20059;-71
2021/12/25 06:40:55;;;;;;;1.10;0.32;;;;;;;14.74;42.56;100747.44;19735854;30;20134;-70
2021/12/25 06:50:57;;;;;;;0.73;0.30;;;;;;;15.16;42.82;100787.94;19720330;30;20147;-70
2021/12/25 07:01:28;;;;;;;0.38;0.25;;;;;;;15.35;42.75;100810.59;19698262;30;20062;-70
2021/12/25 07:11:30;;;;;;;1.40;0.30;;;;;;;15.34;42.45;100820.50;19747796;30;20094;-71
2021/12/25 07:21:55;;;;;;;0.30;0.30;;;;;;;14.87;42.24;100750.84;19748105;30;20416;-70
2021/12/25 07:32:17;;;;;;;0.30;0.20;;;;;;;14.87;41.82;100736.59;19733555;30;20058;-70
2021/12/25 07:42:18;;;;;;;0.40;0.20;;;;;;;14.97;42.08;100745.63;19762134;30;20223;-70
2021/12/25 07:52:41;;;;;;;0.47;0.30;;;;;;;15.12;41.39;100770.38;19746305;30;20093;-71
2021/12/25 08:02:45;;;;;;;0.52;0.20;;;;;;;15.60;41.59;100867.69;19747176;30;20066;-70
2021/12/25 08:12:54;;;;;;;1.23;0.40;;;;;;;15.60;41.43;100860.47;19729586;30;20109;-70
2021/12/25 08:22:56;;;;;;;0.95;0.45;;;;;;;15.61;41.15;100869.41;19759949;29;20074;-70
2021/12/25 08:33:17;;;;;;;1.20;0.32;;;;;;;15.47;40.86;100851.69;19743766;30;20109;-71
2021/12/25 08:43:57;;;;;;;;;;;;;;;15.71;40.83;100878.41;19743720;30;20470;-70
2021/12/25 08:53:59;;;;;;;0.37;0.30;;;;;;;15.65;41.04;100881.59;19755557;30;19953;-70
2021/12/25 09:04:02;;;;;;;0.57;0.38;;;;;;;15.13;40.86;100790.84;19741888;30;20138;-70
2021/12/25 09:14:04;;;;;;;1.63;0.32;;;;;;;15.76;40.84;100918.31;19742727;30;20166;-70
2021/12/25 09:24:06;;;;;;;1.05;0.30;;;;;;;15.12;41.03;100820.44;19726092;30;20071;-70
2021/12/25 09:34:09;;;;;;;1.30;0.50;;;;;;;15.64;40.90;100912.09;19752173;29;20064;-70
2021/12/25 09:44:11;;;;;;;1.10;0.50;;;;;;;15.82;40.80;100936.63;19738911;30;20051;-70
2021/12/25 09:54:15;;;;;;;0.55;0.30;;;;;;;15.22;40.57;100840.19;19738582;30;20121;-70
2021/12/25 10:04:39;;;;;;;0.55;0.20;;;;;;;14.38;40.71;100754.59;19735775;30;20526;-70
2021/12/25 10:14:43;;;;;;;0.20;0.20;;;;;;;15.87;40.54;100941.59;19665449;30;20067;-69
2021/12/25 10:24:50;;;;;;;0.60;0.30;;;;;;;15.63;40.80;100897.78;19689923;30;20078;-70
2021/12/25 10:34:54;;;;;;;0.95;0.40;;;;;;;15.95;40.45;100937.38;19735898;30;20101;-71
2021/12/25 10:44:58;;;;;;;0.70;0.30;;;;;;;15.49;40.71;100864.03;19720333;30;20150;-70
2021/12/25 10:55:05;;;;;;;0.30;0.30;;;;;;;15.69;40.94;100891.09;19737008;30;20101;-69
2021/12/25 11:05:15;;;;;;;0.80;0.35;;;;;;;16.08;41.34;100934.56;19734856;30;20715;-71
2021/12/25 11:15:25;;;;;;;1.33;0.32;;;;;;;16.06;41.15;100917.72;19736391;30;20059;-70
2021/12/25 11:25:29;;;;;;;0.85;0.30;;;;;;;16.11;41.25;100929.91;19719122;30;20529;-71
2021/12/25 11:35:34;;;;;;;1.05;0.40;;;;;;;16.14;41.77;100935.91;19734101;30;20413;-71
2021/12/25 11:45:48;;;;;;;1.17;0.40;;;;;;;16.11;41.78;100928.06;19734301;30;20503;-69
2021/12/25 12:06:14;;;;;;;0.88;0.40;;;;;;;15.53;41.65;100816.31;19760137;29;20060;-69
2021/12/25 12:16:36;;;;;;;1.45;0.52;;;;;;;15.73;42.50;100838.88;19730440;30;20052;-74
2021/12/25 12:26:53;;;;;;;1.55;0.80;;;;;;;16.15;42.14;100883.91;19727316;30;20483;-77
2021/12/25 12:37:13;;;;;;;1.80;0.65;;;;;;;16.41;42.15;100898.84;19697888;30;20164;-73
2021/12/25 12:47:18;;;;;;;1.92;0.50;;;;;;;16.29;42.18;100882.75;19704901;30;20059;-78
2021/12/25 12:57:30;;;;;;;2.00;0.55;;;;;;;16.42;41.74;100887.13;19696875;30;20067;-80
2021/12/25 13:07:35;;;;;;;0.65;0.43;;;;;;;16.51;40.65;100800.38;19698319;29;20047;-78
2021/12/25 13:17:38;;;;;;;1.10;0.60;;;;;;;17.23;39.04;100820.25;19697765;30;20060;-78
2021/12/25 13:27:40;;;;;;;1.90;0.80;;;;;;;17.73;38.47;100914.66;19685487;30;20056;-77
2021/12/25 13:37:41;;;;;;;1.02;0.68;;;;;;;16.79;39.54;100878.66;19695736;30;21906;-80
2021/12/25 13:47:43;;;;;;;1.38;0.73;;;;;;;16.55;40.08;100925.44;19690672;30;20063;-78
2021/12/25 13:57:57;;;;;;;1.02;0.68;;;;;;;15.66;40.81;100843.88;19705690;30;20056;-77
2021/12/25 14:07:59;;;;;;;2.13;0.65;;;;;;;15.70;41.07;100891.97;19717801;29;20051;-78
2021/12/25 14:18:04;;;;;;;1.73;0.70;;;;;;;15.05;41.32;100818.25;19694592;30;20153;-77
2021/12/25 14:28:06;;;;;;;1.80;0.65;;;;;;;15.57;41.39;100925.13;19719913;30;20147;-78
2021/12/25 14:38:08;;;;;;;0.82;0.52;;;;;;;15.10;41.08;100850.09;19724534;30;20487;-77
2021/12/25 14:48:10;;;;;;;0.77;0.45;;;;;;;14.98;40.78;100842.97;19698928;30;20068;-75
2021/12/25 14:58:24;;;;;;;1.10;0.50;;;;;;;15.37;40.67;100894.47;19717815;30;20487;-75
2021/12/25 15:08:30;;;;;;;1.75;0.50;;;;;;;15.64;40.92;100947.81;19688629;30;20113;-74
2021/12/25 15:18:35;;;;;;;1.60;0.50;;;;;;;14.97;40.43;100825.19;19691870;30;20048;-74
2021/12/25 15:28:42;;;;;;;0.90;0.50;;;;;;;15.68;40.70;100929.66;19694937;30;20484;-74
2021/12/25 15:38:44;;;;;;;1.42;0.40;;;;;;;15.54;40.43;100900.38;19690824;30;20059;-74
2021/12/25 15:48:45;;;;;;;0.68;0.45;;;;;;;15.71;40.23;100915.97;19702083;30;20064;-74
2021/12/25 15:58:47;;;;;;;1.35;0.40;;;;;;;15.17;40.64;100829.84;19701834;30;20048;-74
2021/12/25 16:08:49;;;;;;;1.05;0.60;;;;;;;15.72;40.04;100917.69;19701528;30;20060;-78
2021/12/25 16:18:51;;;;;;;1.02;0.40;;;;;;;15.50;40.46;100895.25;19706856;30;20565;-75
2021/12/25 16:28:53;;;;;;;1.75;0.50;;;;;;;15.13;40.00;100836.44;19698951;30;20060;-74
2021/12/25 16:38:56;;;;;;;0.93;0.60;;;;;;;15.25;40.21;100863.25;19706810;30;20051;-75
2021/12/25 16:48:58;;;;;;;2.22;0.65;;;;;;;15.52;39.80;100912.09;19714039;29;20055;-75
2021/12/25 16:59:00;;;;;;;1.80;0.60;;;;;;;15.17;39.79;100872.75;19717025;30;20143;-74
2021/12/25 17:09:03;;;;;;;1.63;0.55;;;;;;;15.79;40.31;100980.66;19723605;29;20101;-74
2021/12/25 17:19:05;;;;;;;1.25;0.55;;;;;;;15.64;40.41;100957.72;19724764;30;20125;-74
2021/12/25 17:29:07;;;;;;;1.20;0.73;;;;;;;15.23;39.87;100885.69;19734995;29;20123;-75
2021/12/25 17:39:09;;;;;;;1.67;0.73;;;;;;;15.83;39.48;100983.97;19726495;30;20063;-74
2021/12/25 17:49:12;;;;;;;1.70;1.10;;;;;;;15.74;39.26;100942.59;19736030;30;20056;-74
2021/12/25 17:59:36;;;;;;;1.42;0.70;;;;;;;15.46;39.22;100923.28;19726275;30;20079;-73
2021/12/25 18:09:41;;;;;;;1.48;0.50;;;;;;;15.02;39.42;100817.63;19739469;29;20090;-73
2021/12/25 18:19:43;;;;;;;0.77;0.63;;;;;;;15.31;39.56;100878.88;19736856;30;20143;-72
2021/12/25 18:29:47;;;;;;;0.85;0.70;;;;;;;14.89;39.39;100807.88;19737678;30;20407;-74
2021/12/25 18:39:51;;;;;;;1.85;0.93;;;;;;;15.75;39.33;100965.75;19735996;30;20421;-74
2021/12/25 18:49:53;;;;;;;0.73;0.68;;;;;;;15.70;39.17;100967.97;19736794;30;20129;-73
2021/12/25 18:59:55;;;;;;;5.40;1.38;;;;;;;15.73;39.22;100956.97;19738575;30;20060;-74
2021/12/25 19:09:57;;;;;;;1.83;0.60;;;;;;;15.74;39.74;100973.94;19751648;29;20067;-73
2021/12/25 19:19:59;;;;;;;1.33;0.68;;;;;;;15.57;39.68;100967.22;19749342;30;20755;-72
2021/12/25 19:30:06;;;;;;;1.88;0.70;;;;;;;15.42;39.64;100959.34;19748865;30;20503;-73
2021/12/25 19:40:11;;;;;;;1.38;0.50;;;;;;;15.29;39.61;100959.47;19749027;30;20063;-73
2021/12/25 19:50:20;;;;;;;0.70;0.60;;;;;;;14.63;39.70;100864.28;19747590;30;20066;-73
2021/12/25 20:00:30;;;;;;;0.88;0.50;;;;;;;14.40;39.89;100849.09;19747863;30;20066;-73
2021/12/25 20:10:37;;;;;;;1.55;0.70;;;;;;;14.25;40.55;100859.09;19746359;29;20055;-74
2021/12/25 20:20:39;;;;;;;1.27;0.77;;;;;;;14.29;40.31;100895.41;19745404;30;20067;-74
2021/12/25 20:30:41;;;;;;;1.75;0.70;;;;;;;14.51;41.17;100945.56;19745929;30;20066;-73
2021/12/25 20:40:47;;;;;;;1.00;0.60;;;;;;;13.69;41.25;100823.81;19728293;30;20517;-74
2021/12/25 20:51:03;;;;;;;0.70;0.70;;;;;;;14.07;41.22;100900.50;19745806;30;20128;-74
2021/12/25 21:01:11;;;;;;;2.55;0.80;;;;;;;14.15;41.35;100936.59;19742707;30;20142;-74
2021/12/25 21:11:14;;;;;;;1.70;0.75;;;;;;;13.74;41.38;100915.34;19743484;30;20624;-73
2021/12/25 21:21:17;;;;;;;1.88;0.90;;;;;;;13.27;41.41;100836.63;19742151;30;20142;-73
2021/12/25 21:31:21;;;;;;;2.25;1.13;;;;;;;13.68;41.20;100920.28;19741143;30;20063;-73
2021/12/25 21:41:24;;;;;;;2.53;1.38;;;;;;;13.03;40.92;100813.28;19753097;30;20065;-73
2021/12/25 21:51:25;;;;;;;1.85;1.02;;;;;;;13.58;40.71;100895.97;19738001;30;20067;-74
2021/12/25 22:01:28;;;;;;;1.42;0.80;;;;;;;12.95;40.34;100802.28;19723754;30;20064;-73
2021/12/25 22:11:31;;;;;;;1.48;0.88;;;;;;;13.51;39.92;100902.72;19719215;30;20094;-73
2021/12/25 22:21:32;;;;;;;1.20;1.00;;;;;;;13.46;39.78;100898.56;19721508;30;20134;-73
2021/12/25 22:31:34;;;;;;;1.77;1.00;;;;;;;13.16;39.42;100832.84;19721717;30;20063;-73
2021/12/25 22:41:37;;;;;;;2.17;1.38;;;;;;;11.42;39.45;100561.56;19737232;30;20151;-73
2021/12/25 22:51:38;;;;;;;1.60;0.90;;;;;;;13.41;39.38;100879.28;19737236;30;20059;-74
2021/12/25 23:01:41;;;;;;;1.67;0.85;;;;;;;13.11;39.07;100836.81;19736738;30;20561;-75
2021/12/25 23:11:43;;;;;;;2.17;1.48;;;;;;;13.32;39.06;100858.53;19749965;30;20052;-74
2021/12/25 23:21:46;;;;;;;2.05;0.95;;;;;;;13.29;38.96;100837.34;19733434;30;20063;-74
2021/12/25 23:31:47;;;;;;;1.40;1.02;;;;;;;12.53;38.79;100712.50;19734354;30;20055;-73
2021/12/25 23:41:49;;;;;;;1.27;0.80;;;;;;;13.19;38.57;100837.97;19735104;30;20069;-74
2021/12/25 23:51:52;;;;;;;1.77;0.90;;;;;;;13.27;38.56;100834.78;19758134;30;20155;-74
